Time;durP1;ratioP1;P1;durP2;ratioP2;P2;SDS_P1;SDS_P2;PMS_P1;PMS_P2;Temp;Humidity;BMP_temperature;BMP_pressure;BME280_temperature;BME280_humidity;BME280_pressure;Samples;Min_cycle;Max_cycle;Signal;HPM_P1;HPM_P2
2023/04/25 00:00:38;;;;;;;12.15;3.50;;;;;;;5.79;100.00;100995.00;4877629;29;20047;-72
2023/04/25 00:03:05;;;;;;;7.50;3.75;;;;;;;5.70;100.00;100994.16;4894363;29;20039;-72
2023/04/25 00:05:31;;;;;;;20.08;3.88;;;;;;;5.66;100.00;101001.59;4877759;29;20046;-72
2023/04/25 00:07:57;;;;;;;10.45;3.55;;;;;;;5.60;100.00;101007.50;4894274;29;20044;-72
2023/04/25 00:10:22;;;;;;;5.10;2.83;;;;;;;5.53;100.00;101011.81;4877624;29;20037;-72
2023/04/25 00:12:48;;;;;;;10.82;2.80;;;;;;;5.46;100.00;101000.19;4877264;29;20033;-72
2023/04/25 00:15:14;;;;;;;11.13;5.05;;;;;;;5.43;100.00;101005.81;4893997;29;20088;-72
2023/04/25 00:17:39;;;;;;;9.52;3.97;;;;;;;5.38;100.00;101003.63;4877249;29;20067;-72
2023/04/25 00:20:07;;;;;;;14.38;3.78;;;;;;;5.35;100.00;101017.19;4894089;29;20075;-72
2023/04/25 00:22:34;;;;;;;10.48;2.70;;;;;;;5.30;100.00;101016.81;4876174;29;20025;-72
2023/04/25 00:25:00;;;;;;;7.32;3.17;;;;;;;5.22;100.00;101012.31;4894174;29;20032;-72
2023/04/25 00:27:26;;;;;;;11.90;3.85;;;;;;;5.21;100.00;101026.53;4893950;29;20051;-72
2023/04/25 00:29:51;;;;;;;12.63;2.97;;;;;;;5.18;100.00;101026.00;4894106;29;20040;-72
2023/04/25 00:32:17;;;;;;;6.22;2.47;;;;;;;5.14;100.00;101028.16;4894152;29;20433;-72
2023/04/25 00:34:42;;;;;;;9.75;3.50;;;;;;;5.08;100.00;101022.66;4861732;29;20037;-72
2023/04/25 00:37:07;;;;;;;5.82;2.40;;;;;;;4.98;100.00;101017.50;4893849;29;20056;-72
2023/04/25 00:39:33;;;;;;;14.18;3.22;;;;;;;5.00;100.00;101021.63;4893828;29;20119;-72
2023/04/25 00:41:58;;;;;;;7.28;2.80;;;;;;;4.95;100.00;101012.47;4893807;29;20045;-72
2023/04/25 00:44:24;;;;;;;12.32;4.15;;;;;;;4.91;100.00;101017.25;4897207;29;20111;-72
2023/04/25 00:46:50;;;;;;;10.93;3.25;;;;;;;4.89;100.00;101019.22;4897648;29;20032;-72
2023/04/25 00:49:16;;;;;;;12.10;2.90;;;;;;;4.87;100.00;101007.16;4897565;29;20361;-72
2023/04/25 00:51:44;;;;;;;5.93;3.00;;;;;;;4.88;100.00;101014.13;4897523;29;20028;-72
2023/04/25 00:54:11;;;;;;;11.80;2.80;;;;;;;4.90;100.00;101018.25;4897647;29;20048;-72
2023/04/25 00:56:36;;;;;;;12.82;3.97;;;;;;;4.87;100.00;101010.63;4897626;29;20055;-72
2023/04/25 00:59:01;;;;;;;13.07;2.75;;;;;;;4.89;100.00;101010.47;4879608;29;20120;-72
2023/04/25 01:01:27;;;;;;;12.73;3.80;;;;;;;4.86;100.00;101011.63;4897348;29;20575;-72
2023/04/25 01:03:53;;;;;;;12.52;3.00;;;;;;;4.86;100.00;101014.25;4897399;29;20496;-72
2023/04/25 01:06:19;;;;;;;13.02;3.13;;;;;;;4.83;100.00;101015.41;4897436;29;20040;-72
2023/04/25 01:08:45;;;;;;;8.77;3.65;;;;;;;4.77;100.00;101017.84;4884967;29;20052;-72
2023/04/25 01:11:10;;;;;;;10.90;3.90;;;;;;;4.76;100.00;101013.53;4879329;29;20119;-72
2023/04/25 01:13:36;;;;;;;9.70;3.53;;;;;;;4.70;100.00;101009.69;4878067;29;20041;-72
2023/04/25 01:16:02;;;;;;;9.02;3.13;;;;;;;4.72;100.00;101020.13;4893603;29;20093;-72
2023/04/25 01:18:28;;;;;;;17.65;4.85;;;;;;;4.68;100.00;101022.22;4897176;29;20900;-72
2023/04/25 01:20:55;;;;;;;12.38;3.70;;;;;;;4.60;100.00;101015.06;4896996;29;20044;-72
2023/04/25 01:23:21;;;;;;;13.98;4.00;;;;;;;4.61;100.00;101031.72;4897182;29;20492;-72
2023/04/25 01:25:48;;;;;;;7.00;2.90;;;;;;;4.58;100.00;101024.97;4896970;29;20473;-72
2023/04/25 01:28:13;;;;;;;13.63;4.15;;;;;;;4.58;100.00;101024.13;4896775;29;20036;-72
2023/04/25 01:30:40;;;;;;;11.50;3.03;;;;;;;4.57;100.00;101030.41;4897076;29;20032;-72
2023/04/25 01:33:08;;;;;;;10.93;3.20;;;;;;;4.54;100.00;101036.81;4878943;29;20025;-72
2023/04/25 01:35:33;;;;;;;9.98;2.53;;;;;;;4.56;100.00;101034.84;4877572;29;20120;-72
2023/04/25 01:37:59;;;;;;;11.38;3.05;;;;;;;4.47;100.00;101017.28;4878895;29;20037;-72
2023/04/25 01:40:24;;;;;;;11.13;3.25;;;;;;;4.60;100.00;101045.94;4878816;29;20112;-72
2023/04/25 01:42:50;;;;;;;7.38;3.50;;;;;;;4.60;100.00;101038.84;4878881;29;20146;-72
2023/04/25 01:45:16;;;;;;;12.68;4.22;;;;;;;4.63;100.00;101035.06;4878995;29;20096;-72
2023/04/25 01:47:43;;;;;;;13.05;3.50;;;;;;;4.58;100.00;101032.91;4878773;29;20037;-72
2023/04/25 01:50:09;;;;;;;12.65;5.05;;;;;;;4.61;100.00;101037.00;4878864;29;20037;-72
2023/04/25 01:52:35;;;;;;;11.82;4.65;;;;;;;4.60;100.00;101032.72;4895287;29;20033;-72
2023/04/25 01:55:02;;;;;;;9.38;4.03;;;;;;;4.51;100.00;101026.56;4895464;29;20044;-72
2023/04/25 01:57:27;;;;;;;14.80;3.47;;;;;;;4.52;100.00;101028.22;4879633;29;20028;-72
2023/04/25 02:00:00;;;;;;;7.35;3.40;;;;;;;4.62;100.00;101036.06;4879550;29;20388;-72
2023/04/25 02:02:26;;;;;;;9.77;3.25;;;;;;;4.69;100.00;101045.03;4896348;29;20036;-72
2023/04/25 02:04:52;;;;;;;12.05;3.20;;;;;;;4.74;100.00;101049.84;4896286;29;20028;-72
2023/04/25 02:07:17;;;;;;;13.82;5.35;;;;;;;4.81;100.00;101051.72;4896235;29;20120;-72
2023/04/25 02:09:42;;;;;;;16.98;4.65;;;;;;;4.86;100.00;101058.34;4896321;29;20953;-72
2023/04/25 02:12:09;;;;;;;13.73;3.90;;;;;;;4.88;100.00;101053.75;4879489;29;20488;-72
2023/04/25 02:14:35;;;;;;;11.30;3.47;;;;;;;4.88;100.00;101053.75;4896297;29;20536;-72
2023/04/25 02:17:00;;;;;;;14.90;4.47;;;;;;;4.87;100.00;101055.53;4896144;29;20115;-72
2023/04/25 02:19:25;;;;;;;11.80;3.75;;;;;;;4.86;100.00;101056.53;4879162;29;20032;-72
2023/04/25 02:21:51;;;;;;;20.58;5.40;;;;;;;4.80;100.00;101052.69;4896404;29;20048;-72
2023/04/25 02:24:16;;;;;;;12.05;3.00;;;;;;;4.81;100.00;101051.72;4896023;29;20074;-71
2023/04/25 02:26:41;;;;;;;17.25;5.25;;;;;;;4.85;100.00;101057.53;4879045;29;20067;-71
2023/04/25 02:29:07;;;;;;;11.57;2.92;;;;;;;4.82;100.00;101058.66;4895952;29;20060;-71
2023/04/25 02:31:32;;;;;;;9.15;3.95;;;;;;;4.81;100.00;101064.09;4895933;29;20025;-71
2023/04/25 02:33:58;;;;;;;14.73;4.20;;;;;;;4.73;100.00;101062.22;4895756;29;20084;-71
2023/04/25 02:36:23;;;;;;;12.63;3.97;;;;;;;4.73;100.00;101061.41;4895492;29;20143;-71
2023/04/25 02:38:49;;;;;;;11.32;3.50;;;;;;;4.68;100.00;101056.56;4878943;29;20195;-71
2023/04/25 02:41:14;;;;;;;14.90;3.90;;;;;;;4.65;100.00;101053.41;4895586;29;20037;-71
2023/04/25 02:43:40;;;;;;;14.48;4.53;;;;;;;4.59;100.00;101060.97;4895941;29;20052;-71
2023/04/25 02:46:05;;;;;;;19.13;5.22;;;;;;;4.58;100.00;101072.53;4895455;29;20058;-71
2023/04/25 02:48:31;;;;;;;11.60;3.72;;;;;;;4.50;100.00;101061.03;4891452;29;20033;-71
2023/04/25 02:50:56;;;;;;;13.30;5.13;;;;;;;4.47;100.00;101070.09;4861008;29;20033;-71
2023/04/25 02:53:21;;;;;;;13.07;3.70;;;;;;;4.44;100.00;101067.75;4877607;29;20037;-71
2023/04/25 02:55:47;;;;;;;11.70;3.78;;;;;;;4.38;100.00;101069.19;4877539;29;20071;-71
2023/04/25 02:58:12;;;;;;;19.70;6.57;;;;;;;4.35;100.00;101071.31;4877500;29;20104;-71
2023/04/25 03:00:37;;;;;;;15.75;3.58;;;;;;;4.31;100.00;101070.75;4877402;29;20037;-71
2023/04/25 03:03:03;;;;;;;13.50;4.35;;;;;;;4.24;100.00;101058.31;4877393;29;20033;-71
2023/04/25 03:05:28;;;;;;;14.52;4.43;;;;;;;4.18;100.00;101059.75;4860425;29;20033;-71
2023/04/25 03:07:53;;;;;;;9.23;4.05;;;;;;;4.20;100.00;101075.44;4877249;29;20060;-71
2023/04/25 03:10:19;;;;;;;11.15;3.65;;;;;;;4.05;100.00;101048.72;4877309;29;20053;-71
2023/04/25 03:12:44;;;;;;;13.85;4.20;;;;;;;4.11;100.00;101063.97;4895061;29;20046;-71
2023/04/25 03:15:10;;;;;;;18.60;4.00;;;;;;;4.08;100.00;101062.44;4894973;29;20044;-71
2023/04/25 03:17:35;;;;;;;9.95;3.58;;;;;;;4.04;100.00;101062.91;4878363;29;20052;-71
2023/04/25 03:20:01;;;;;;;9.63;4.65;;;;;;;4.04;100.00;101073.47;4895039;29;20041;-71
2023/04/25 03:22:26;;;;;;;11.38;4.55;;;;;;;4.00;100.00;101072.09;4894766;29;20461;-71
2023/04/25 03:24:52;;;;;;;16.55;4.25;;;;;;;3.99;100.00;101079.19;4894839;29;20047;-71
2023/04/25 03:27:17;;;;;;;16.15;4.63;;;;;;;4.03;100.00;101074.44;4894825;29;20028;-71
2023/04/25 03:29:43;;;;;;;11.55;4.38;;;;;;;4.06;100.00;101077.63;4877786;29;20064;-71
2023/04/25 03:32:08;;;;;;;15.57;3.60;;;;;;;4.09;100.00;101076.50;4894719;29;20031;-71
2023/04/25 03:34:34;;;;;;;12.35;3.75;;;;;;;4.17;100.00;101073.94;4877889;29;20123;-71
2023/04/25 03:36:59;;;;;;;12.15;4.32;;;;;;;4.20;100.00;101073.63;4877729;29;20072;-71
2023/04/25 03:39:25;;;;;;;9.93;3.95;;;;;;;4.22;100.00;101070.81;4894618;29;20122;-71
2023/04/25 03:41:50;;;;;;;18.92;5.20;;;;;;;4.28;100.00;101075.53;4894602;29;20582;-71
2023/04/25 03:44:15;;;;;;;10.93;3.42;;;;;;;4.28;100.00;101078.16;4894718;29;20059;-71
2023/04/25 03:46:41;;;;;;;14.68;4.93;;;;;;;4.33;100.00;101087.28;4877634;29;20544;-71
2023/04/25 03:49:06;;;;;;;11.57;3.83;;;;;;;4.28;100.00;101073.72;4894533;29;20146;-71
2023/04/25 03:51:32;;;;;;;13.77;4.13;;;;;;;4.30;100.00;101082.31;4877533;29;20040;-71
2023/04/25 03:53:58;;;;;;;15.73;3.90;;;;;;;4.24;100.00;101074.97;4894456;29;20039;-71
2023/04/25 03:56:23;;;;;;;12.98;4.05;;;;;;;4.23;100.00;101081.25;4876667;29;20037;-71
2023/04/25 03:58:49;;;;;;;13.63;3.70;;;;;;;4.17;100.00;101072.13;4894145;29;20048;-71
2023/04/25 04:01:14;;;;;;;10.75;3.67;;;;;;;4.13;100.00;101078.66;4877433;29;20437;-71
2023/04/25 04:03:40;;;;;;;10.43;3.45;;;;;;;4.08;100.00;101083.56;4894426;29;20057;-71
2023/04/25 04:06:06;;;;;;;17.02;4.93;;;;;;;4.01;100.00;101085.16;4894195;29;20071;-71
2023/04/25 04:08:32;;;;;;;21.77;4.25;;;;;;;4.02;100.00;101091.25;4894297;29;20084;-71
2023/04/25 04:10:58;;;;;;;12.07;3.78;;;;;;;4.02;100.00;101092.09;4894266;29;20510;-71
2023/04/25 04:13:26;;;;;;;14.52;4.13;;;;;;;4.04;100.00;101089.31;4894133;29;20136;-71
2023/04/25 04:15:51;;;;;;;11.75;4.43;;;;;;;4.04;100.00;101098.03;4894397;29;20123;-71
2023/04/25 04:18:17;;;;;;;10.75;4.47;;;;;;;4.06;100.00;101106.66;4897991;29;20040;-71
2023/04/25 04:20:42;;;;;;;12.90;3.83;;;;;;;4.10;100.00;101105.38;4900267;29;20437;-71
2023/04/25 04:23:08;;;;;;;16.45;4.30;;;;;;;4.05;100.00;101091.78;4900362;29;20039;-71
2023/04/25 04:25:34;;;;;;;15.63;4.43;;;;;;;4.12;100.00;101100.78;4900240;29;20386;-71
2023/04/25 04:28:00;;;;;;;15.88;4.82;;;;;;;4.14;100.00;101103.28;4900372;29;20556;-71
2023/04/25 04:30:29;;;;;;;13.38;4.70;;;;;;;4.07;100.00;101089.00;4900377;29;20032;-71
2023/04/25 04:32:55;;;;;;;15.20;4.45;;;;;;;4.06;100.00;101101.38;4900238;29;20039;-71
2023/04/25 04:35:21;;;;;;;15.82;5.28;;;;;;;3.99;100.00;101095.03;4900002;29;20390;-71
2023/04/25 04:37:47;;;;;;;16.30;4.40;;;;;;;4.11;100.00;101120.25;4900229;29;20051;-71
2023/04/25 04:40:15;;;;;;;17.00;4.35;;;;;;;4.12;100.00;101113.97;4900148;29;20079;-71
2023/04/25 04:42:45;;;;;;;12.80;3.90;;;;;;;4.20;100.00;101123.78;4900251;29;20032;-71
2023/04/25 04:45:12;;;;;;;13.52;4.55;;;;;;;4.22;100.00;101124.47;4900324;29;20143;-71
2023/04/25 04:47:39;;;;;;;15.32;3.90;;;;;;;4.15;100.00;101112.84;4900052;29;20537;-71
2023/04/25 04:50:09;;;;;;;15.60;4.00;;;;;;;4.29;100.00;101124.69;4900150;29;20029;-71
2023/04/25 04:52:38;;;;;;;12.32;3.85;;;;;;;4.41;100.00;101125.34;4900026;29;20028;-71
2023/04/25 04:55:05;;;;;;;12.70;3.58;;;;;;;4.50;100.00;101125.25;4883248;29;20607;-71
2023/04/25 04:57:30;;;;;;;23.27;5.22;;;;;;;4.60;100.00;101125.19;4900036;29;20140;-71
2023/04/25 04:59:56;;;;;;;43.10;7.00;;;;;;;4.80;100.00;101136.44;4900052;29;20113;-72
2023/04/25 05:02:22;;;;;;;16.48;5.38;;;;;;;5.00;100.00;101131.78;4897736;29;20020;-70
2023/04/25 05:04:47;;;;;;;16.13;4.68;;;;;;;5.22;100.00;101136.59;4883371;29;20486;-72
2023/04/25 05:07:13;;;;;;;14.88;3.95;;;;;;;5.27;100.00;101139.59;4899809;29;20547;-72
2023/04/25 05:09:38;;;;;;;9.98;3.85;;;;;;;5.28;100.00;101143.91;4899878;29;20092;-72
2023/04/25 05:12:04;;;;;;;16.38;3.65;;;;;;;5.31;100.00;101147.22;4899844;29;20035;-71
2023/04/25 05:14:29;;;;;;;14.10;5.22;;;;;;;5.34;100.00;101145.09;4899745;29;20048;-72
2023/04/25 05:16:55;;;;;;;20.60;6.50;;;;;;;5.38;100.00;101156.22;4871477;29;20037;-72
2023/04/25 05:19:20;;;;;;;14.90;4.53;;;;;;;5.39;100.00;101161.31;4864947;29;20031;-72
2023/04/25 05:21:45;;;;;;;14.32;4.30;;;;;;;5.47;100.00;101171.13;4881822;29;20037;-74
2023/04/25 05:24:11;;;;;;;11.02;6.55;;;;;;;5.53;100.00;101173.19;4886807;29;20036;-71
2023/04/25 05:26:37;;;;;;;9.57;3.55;;;;;;;5.70;100.00;101180.22;4884584;29;20116;-71
2023/04/25 05:29:03;;;;;;;10.70;3.40;;;;;;;5.97;100.00;101175.75;4883418;29;20057;-71
2023/04/25 05:31:28;;;;;;;9.38;4.57;;;;;;;6.08;100.00;101180.78;4881067;29;20029;-71
2023/04/25 05:33:53;;;;;;;15.63;4.00;;;;;;;6.54;100.00;101183.91;4881744;29;20029;-73
2023/04/25 05:36:19;;;;;;;14.10;4.95;;;;;;;7.18;100.00;101176.19;4881523;29;20527;-74
2023/04/25 05:38:45;;;;;;;13.45;3.92;;;;;;;7.22;100.00;101189.94;4871458;29;20050;-76
2023/04/25 05:41:10;;;;;;;13.82;4.13;;;;;;;6.92;100.00;101197.56;4872207;29;20421;-76
2023/04/25 05:43:36;;;;;;;11.98;4.03;;;;;;;6.72;100.00;101201.50;4864611;29;20045;-77
2023/04/25 05:46:01;;;;;;;13.23;2.90;;;;;;;6.51;100.00;101194.00;4880866;29;20377;-77
2023/04/25 05:48:26;;;;;;;13.20;3.22;;;;;;;6.38;100.00;101202.41;4881968;29;20033;-76
2023/04/25 05:50:52;;;;;;;9.05;3.03;;;;;;;6.26;100.00;101199.22;4864017;29;20442;-76
2023/04/25 05:53:19;;;;;;;11.23;4.45;;;;;;;6.24;100.00;101210.97;4880812;29;20434;-76
2023/04/25 05:55:44;;;;;;;13.82;4.53;;;;;;;6.12;100.00;101198.00;4881288;29;20140;-76
2023/04/25 05:58:10;;;;;;;12.75;3.70;;;;;;;6.10;100.00;101210.59;4872657;29;20115;-74
2023/04/25 06:00:35;;;;;;;9.45;3.40;;;;;;;6.04;100.00;101211.19;4863065;29;20471;-74
2023/04/25 06:03:01;;;;;;;14.05;3.45;;;;;;;6.00;100.00;101209.88;4881079;29;20033;-74
2023/04/25 06:05:26;;;;;;;10.05;2.78;;;;;;;5.93;99.74;101220.25;4848163;29;20041;-73
2023/04/25 06:07:52;;;;;;;12.57;3.42;;;;;;;5.93;99.96;101214.09;4880379;29;20025;-73
2023/04/25 06:10:18;;;;;;;9.50;2.90;;;;;;;5.95;100.00;101216.59;4881375;29;20465;-73
2023/04/25 06:12:43;;;;;;;6.90;2.85;;;;;;;6.08;100.00;101215.19;4880304;29;20031;-73
2023/04/25 06:15:09;;;;;;;8.85;3.35;;;;;;;6.45;99.48;101216.69;4880082;29;20049;-73
2023/04/25 06:17:35;;;;;;;13.73;2.83;;;;;;;6.61;97.61;101218.53;4881862;29;20735;-73
2023/04/25 06:20:01;;;;;;;14.93;3.30;;;;;;;6.56;94.51;101226.97;4881070;29;20029;-73
2023/04/25 06:22:26;;;;;;;11.35;3.55;;;;;;;6.57;96.14;101215.38;4880244;29;20040;-73
2023/04/25 06:24:52;;;;;;;9.63;2.88;;;;;;;6.67;95.59;101228.50;4880139;29;20389;-73
2023/04/25 06:27:17;;;;;;;11.02;3.25;;;;;;;6.70;94.19;101224.69;4880237;29;20362;-73
2023/04/25 06:29:42;;;;;;;10.88;3.53;;;;;;;6.67;94.65;101230.31;4880139;29;20056;-74
2023/04/25 06:32:08;;;;;;;8.95;3.58;;;;;;;6.75;96.17;101222.38;4880762;29;20080;-73
2023/04/25 06:34:33;;;;;;;9.25;3.13;;;;;;;6.74;93.71;101221.56;4879941;29;20041;-73
2023/04/25 06:36:58;;;;;;;12.32;3.88;;;;;;;6.78;94.71;101230.81;4880087;29;20063;-75
2023/04/25 06:39:25;;;;;;;13.65;3.45;;;;;;;6.83;95.68;101235.66;4881771;29;20040;-75
2023/04/25 06:41:50;;;;;;;9.60;2.72;;;;;;;6.71;92.82;101229.00;4879808;29;20039;-78
2023/04/25 06:44:16;;;;;;;6.35;2.95;;;;;;;6.60;93.18;101224.81;4878744;29;20473;-76
2023/04/25 06:46:41;;;;;;;10.10;2.83;;;;;;;6.63;94.77;101244.88;4879532;29;20064;-74
2023/04/25 06:49:07;;;;;;;9.07;3.72;;;;;;;6.67;94.24;101248.88;4839119;29;20024;-74
2023/04/25 06:51:32;;;;;;;7.20;2.72;;;;;;;6.72;94.17;101242.09;4879463;29;20029;-72
2023/04/25 06:53:57;;;;;;;7.53;3.28;;;;;;;6.82;93.75;101249.09;4880352;29;21058;-73
2023/04/25 06:56:23;;;;;;;7.00;2.58;;;;;;;6.98;92.60;101254.41;4879752;29;20043;-72
2023/04/25 06:58:49;;;;;;;5.38;2.30;;;;;;;7.11;93.52;101259.25;4879988;29;20029;-73
2023/04/25 07:01:14;;;;;;;9.60;3.38;;;;;;;7.29;92.07;101256.44;4883614;29;20047;-74
2023/04/25 07:03:40;;;;;;;9.57;2.50;;;;;;;7.33;90.81;101261.22;4895089;29;20040;-74
2023/04/25 07:06:05;;;;;;;8.60;2.90;;;;;;;7.40;87.93;101267.53;4894636;29;20079;-74
2023/04/25 07:08:31;;;;;;;13.07;2.33;;;;;;;7.49;88.03;101271.03;4894824;29;20102;-74
2023/04/25 07:10:56;;;;;;;13.40;3.30;;;;;;;7.62;88.84;101266.06;4869538;29;20037;-75
2023/04/25 07:13:21;;;;;;;5.32;2.85;;;;;;;7.63;87.60;101266.88;4876750;29;20040;-75
2023/04/25 07:15:48;;;;;;;7.20;2.80;;;;;;;7.68;85.56;101264.56;4876674;29;20497;-75
2023/04/25 07:18:13;;;;;;;9.52;2.78;;;;;;;7.88;85.73;101280.94;4894404;29;20492;-75
2023/04/25 07:20:39;;;;;;;7.32;2.28;;;;;;;8.20;85.89;101273.91;4894581;29;20032;-75
2023/04/25 07:23:04;;;;;;;14.30;5.65;;;;;;;8.21;83.48;101271.09;4894878;29;20523;-75
2023/04/25 07:25:30;;;;;;;13.20;2.88;;;;;;;8.36;83.25;101276.53;4874899;29;20029;-75
2023/04/25 07:27:56;;;;;;;14.48;5.28;;;;;;;8.85;80.55;101284.31;4876172;29;20043;-71
2023/04/25 07:30:22;;;;;;;6.57;2.35;;;;;;;9.37;78.68;101280.97;4879344;29;20056;-72
2023/04/25 07:32:48;;;;;;;7.60;3.00;;;;;;;9.85;76.60;101280.72;4879387;29;20067;-73
2023/04/25 07:35:13;;;;;;;9.07;2.58;;;;;;;10.59;74.51;101282.66;4878960;29;20081;-75
2023/04/25 07:37:39;;;;;;;5.57;2.90;;;;;;;10.72;72.41;101288.97;4879579;29;20028;-74
2023/04/25 07:40:05;;;;;;;7.53;2.85;;;;;;;10.53;71.81;101292.19;4879335;29;20051;-74
2023/04/25 07:42:30;;;;;;;12.73;3.40;;;;;;;10.68;72.01;101295.66;4878649;29;20505;-74
2023/04/25 07:44:56;;;;;;;7.18;2.97;;;;;;;11.28;71.59;101291.00;4878740;29;20115;-76
2023/04/25 07:47:21;;;;;;;6.60;3.08;;;;;;;11.49;68.09;101300.03;4883158;29;20032;-79
2023/04/25 07:49:46;;;;;;;12.43;2.83;;;;;;;12.05;66.74;101306.28;4882786;29;20393;-80
2023/04/25 07:52:12;;;;;;;7.75;2.33;;;;;;;13.13;65.76;101303.09;4865276;29;20029;-75
2023/04/25 07:54:37;;;;;;;6.82;1.92;;;;;;;13.54;58.84;101315.53;4858294;29;20037;-75
2023/04/25 07:57:03;;;;;;;8.45;3.65;;;;;;;12.80;59.66;101321.72;4875384;29;20108;-76
2023/04/25 07:59:28;;;;;;;4.32;2.13;;;;;;;12.19;62.10;101320.56;4875307;29;20060;-75
2023/04/25 08:01:53;;;;;;;6.07;2.03;;;;;;;11.68;63.51;101325.28;4875433;29;20037;-75
2023/04/25 08:04:19;;;;;;;5.45;1.60;;;;;;;11.32;64.16;101312.81;4843458;29;20076;-75
2023/04/25 08:06:45;;;;;;;6.25;1.73;;;;;;;11.60;62.94;101318.22;4879719;29;20043;-75
2023/04/25 08:09:10;;;;;;;6.05;2.13;;;;;;;11.83;63.38;101316.16;4893415;29;20039;-75
2023/04/25 08:11:36;;;;;;;17.42;3.45;;;;;;;11.54;62.11;101327.81;4894178;29;20064;-75
2023/04/25 08:14:02;;;;;;;13.40;2.22;;;;;;;12.38;62.05;101320.88;4894190;29;20028;-75
2023/04/25 08:16:28;;;;;;;7.22;2.22;;;;;;;12.45;60.33;101327.94;4889633;29;20129;-75
2023/04/25 08:18:54;;;;;;;4.68;1.60;;;;;;;12.31;61.32;101336.88;4876292;29;20103;-75
2023/04/25 08:21:20;;;;;;;4.50;1.38;;;;;;;12.36;61.79;101334.44;4876140;29;20040;-75
2023/04/25 08:23:45;;;;;;;11.80;4.00;;;;;;;12.25;60.00;101341.16;4893992;29;20499;-75
2023/04/25 08:26:10;;;;;;;10.73;2.15;;;;;;;12.14;61.61;101347.06;4894031;29;20032;-75
2023/04/25 08:28:36;;;;;;;4.25;1.67;;;;;;;11.96;62.51;101349.38;4894198;29;20188;-75
2023/04/25 08:31:01;;;;;;;9.55;1.70;;;;;;;11.53;62.77;101346.72;4893942;29;20029;-75
2023/04/25 08:33:27;;;;;;;7.60;2.42;;;;;;;10.95;62.34;101355.53;4894009;29;20554;-75
2023/04/25 08:35:52;;;;;;;7.43;2.55;;;;;;;10.39;61.96;101363.19;4893666;29;20056;-75
2023/04/25 08:38:18;;;;;;;7.55;1.52;;;;;;;10.33;64.24;101353.25;4893969;29;20476;-75
2023/04/25 08:40:44;;;;;;;5.38;1.77;;;;;;;10.73;61.12;101354.63;4893644;29;20037;-75
2023/04/25 08:43:14;;;;;;;7.53;2.55;;;;;;;11.23;58.88;101354.00;4893898;29;20866;-75
2023/04/25 08:45:41;;;;;;;6.32;1.10;;;;;;;11.70;58.84;101357.97;4887487;29;20057;-75
2023/04/25 08:48:15;;;;;;;7.10;2.17;;;;;;;11.79;59.90;101357.66;4893393;29;20503;-75
2023/04/25 08:50:53;;;;;;;6.57;1.85;;;;;;;11.67;60.65;101366.38;4877114;29;20421;-75
2023/04/25 08:53:25;;;;;;;6.75;1.67;;;;;;;11.40;59.08;101366.13;4893948;29;20796;-75
2023/04/25 08:55:51;;;;;;;6.13;1.90;;;;;;;11.18;57.79;101370.56;4893861;29;20572;-75
2023/04/25 08:58:18;;;;;;;4.85;1.70;;;;;;;11.09;60.50;101369.03;4893968;29;20033;-75
2023/04/25 09:00:45;;;;;;;9.57;2.83;;;;;;;11.07;62.00;101382.56;4876999;29;20043;-75
2023/04/25 09:03:11;;;;;;;12.95;2.85;;;;;;;10.79;61.82;101384.25;4893727;29;20115;-75
2023/04/25 09:05:36;;;;;;;6.95;2.20;;;;;;;10.53;63.89;101390.88;4897268;29;20040;-75
2023/04/25 09:08:02;;;;;;;9.40;2.00;;;;;;;10.24;65.73;101408.47;4897357;29;20096;-75
2023/04/25 09:10:27;;;;;;;9.13;2.13;;;;;;;10.02;66.87;101410.16;4897205;29;20036;-75
2023/04/25 09:13:06;;;;;;;4.40;1.65;;;;;;;9.95;68.82;101400.38;4872025;29;20040;-75
2023/04/25 09:15:33;;;;;;;7.10;2.10;;;;;;;9.87;68.79;101414.59;4879199;29;20127;-75
2023/04/25 09:17:59;;;;;;;10.07;2.45;;;;;;;9.70;70.02;101413.91;4879364;29;20404;-75
2023/04/25 09:20:25;;;;;;;7.15;2.00;;;;;;;9.63;70.92;101423.59;4879157;29;20029;-75
2023/04/25 09:23:02;;;;;;;10.20;2.63;;;;;;;9.72;73.00;101421.69;4883681;29;20041;-75
2023/04/25 09:25:35;;;;;;;5.18;2.03;;;;;;;9.93;72.86;101421.03;4895995;29;20104;-75
2023/04/25 09:28:04;;;;;;;6.20;2.35;;;;;;;10.00;69.92;101428.16;4897075;29;20159;-75
2023/04/25 09:30:32;;;;;;;7.18;1.90;;;;;;;9.83;65.04;101447.94;4896820;29;20056;-75
2023/04/25 09:33:03;;;;;;;10.00;2.63;;;;;;;9.20;70.20;101455.94;4896962;29;20033;-75
2023/04/25 09:35:36;;;;;;;6.40;2.15;;;;;;;8.58;76.13;101474.38;4890202;29;20068;-75
2023/04/25 09:38:01;;;;;;;9.38;1.70;;;;;;;8.20;80.10;101479.34;4896775;29;20045;-75
2023/04/25 09:40:26;;;;;;;6.50;1.38;;;;;;;7.89;79.98;101479.16;4879872;29;20084;-75
2023/04/25 09:42:52;;;;;;;5.82;1.65;;;;;;;7.66;78.89;101476.28;4896786;29;20457;-75
2023/04/25 09:45:17;;;;;;;3.53;1.30;;;;;;;7.61;80.84;101465.31;4896714;29;21019;-75
2023/04/25 09:47:46;;;;;;;6.43;1.92;;;;;;;7.61;83.49;101470.63;4891997;29;20084;-75
2023/04/25 09:50:16;;;;;;;5.90;1.60;;;;;;;7.79;84.19;101466.00;4881887;29;20037;-75
2023/04/25 09:52:41;;;;;;;3.95;1.75;;;;;;;7.93;83.33;101471.69;4878494;29;20028;-75
2023/04/25 09:55:07;;;;;;;4.97;1.90;;;;;;;8.01;84.17;101479.66;4896235;29;20039;-75
2023/04/25 09:57:33;;;;;;;6.30;1.90;;;;;;;7.94;82.52;101470.66;4870038;29;20041;-75
2023/04/25 10:00:00;;;;;;;7.97;1.98;;;;;;;7.95;80.29;101467.88;4878547;29;20045;-75
2023/04/25 10:02:27;;;;;;;2.97;1.48;;;;;;;8.16;80.52;101464.72;4878435;29;20036;-76
2023/04/25 10:04:54;;;;;;;6.03;2.58;;;;;;;8.38;75.56;101470.38;4878569;29;20033;-75
2023/04/25 10:07:27;;;;;;;4.68;1.92;;;;;;;8.49;76.73;101462.94;4881814;29;20507;-75
2023/04/25 10:10:04;;;;;;;4.43;1.50;;;;;;;8.75;77.26;101462.72;4896269;29;20511;-75
2023/04/25 10:12:32;;;;;;;2.08;1.23;;;;;;;9.04;72.53;101465.78;4892033;29;20111;-75
2023/04/25 10:14:58;;;;;;;4.13;1.63;;;;;;;9.26;74.80;101459.72;4887973;29;20497;-75
2023/04/25 10:17:24;;;;;;;1.70;1.35;;;;;;;9.47;71.24;101453.81;4891226;29;20401;-76
2023/04/25 10:19:51;;;;;;;3.40;1.30;;;;;;;9.74;73.27;101449.00;4878185;29;20029;-75
2023/04/25 10:22:36;;;;;;;10.85;2.25;;;;;;;9.85;70.50;101445.91;4878031;29;20047;-75
2023/04/25 10:25:05;;;;;;;5.45;1.50;;;;;;;9.94;70.10;101441.38;4895851;29;20039;-75
2023/04/25 10:27:32;;;;;;;12.85;2.30;;;;;;;10.09;68.17;101444.94;4896023;29;20027;-76
2023/04/25 10:30:09;;;;;;;6.13;2.50;;;;;;;10.24;69.60;101442.28;4896035;29;20024;-75
2023/04/25 10:32:35;;;;;;;6.03;1.52;;;;;;;10.21;64.34;101442.66;4880020;29;20021;-75
2023/04/25 10:35:31;;;;;;;4.95;1.50;;;;;;;10.32;69.90;101444.91;4895529;29;20042;-75
2023/04/25 10:38:05;;;;;;;3.60;1.88;;;;;;;10.39;62.70;101451.19;4875918;29;20049;-75
2023/04/25 10:40:31;;;;;;;6.13;1.98;;;;;;;10.42;62.23;101447.31;4877604;29;20561;-75
2023/04/25 10:43:31;;;;;;;5.40;1.70;;;;;;;10.65;65.22;101440.09;4877764;29;20021;-75
2023/04/25 10:45:59;;;;;;;3.17;1.58;;;;;;;10.81;60.79;101449.75;4895650;29;20037;-75
2023/04/25 10:48:28;;;;;;;2.83;1.63;;;;;;;10.98;57.11;101450.44;4895451;29;20069;-75
2023/04/25 10:51:20;;;;;;;5.15;1.80;;;;;;;11.00;62.84;101442.22;4879876;29;20033;-75
2023/04/25 10:54:07;;;;;;;5.65;1.38;;;;;;;10.96;62.90;101463.94;4877581;29;20029;-75
2023/04/25 10:56:44;;;;;;;5.70;1.30;;;;;;;10.70;60.90;101452.91;4877344;29;20045;-75
2023/04/25 10:59:10;;;;;;;6.10;1.35;;;;;;;10.50;59.59;101472.06;4877524;29;20568;-75
2023/04/25 11:01:40;;;;;;;5.03;2.35;;;;;;;10.26;64.13;101474.94;4877360;29;20048;-75
2023/04/25 11:04:18;;;;;;;4.55;2.10;;;;;;;9.87;64.85;101462.56;4877069;29;20040;-77
2023/04/25 11:07:14;;;;;;;6.28;3.03;;;;;;;9.58;68.18;101479.22;4879596;29;20119;-72
2023/04/25 11:09:40;;;;;;;8.00;1.63;;;;;;;9.30;70.76;101490.34;4880114;29;20063;-73
2023/04/25 11:12:08;;;;;;;3.78;1.65;;;;;;;9.12;72.57;101495.88;4875075;29;20463;-75
2023/04/25 11:14:34;;;;;;;7.32;1.75;;;;;;;8.95;72.80;101491.59;4894925;29;20545;-76
2023/04/25 11:17:01;;;;;;;7.10;1.73;;;;;;;8.85;72.08;101499.75;4887061;29;20040;-76
2023/04/25 11:19:27;;;;;;;3.58;1.45;;;;;;;8.75;73.39;101502.63;4877441;29;20036;-76